Time;durP1;ratioP1;P1;durP2;ratioP2;P2;SDS_P1;SDS_P2;PMS_P1;PMS_P2;Temp;Humidity;BMP_temperature;BMP_pressure;BME280_temperature;BME280_humidity;BME280_pressure;Samples;Min_cycle;Max_cycle;Signal;HPM_P1;HPM_P2
2023/03/29 00:01:29;;;;;;;1.93;1.50;;;8.00;99.90;;;;;;5088962;28;20230;-67
2023/03/29 00:04:00;;;;;;;2.03;1.43;;;8.00;99.90;;;;;;5073673;28;20175;-67
2023/03/29 00:06:31;;;;;;;1.60;1.37;;;8.10;99.90;;;;;;5089046;28;20203;-67
2023/03/29 00:09:03;;;;;;;2.23;1.60;;;8.10;99.90;;;;;;5062157;28;20176;-64
2023/03/29 00:11:29;;;;;;;2.77;1.57;;;8.10;99.90;;;;;;5055856;28;20216;-67
2023/03/29 00:13:55;;;;;;;2.13;1.60;;;8.10;99.90;;;;;;5075612;28;20197;-68
2023/03/29 00:16:25;;;;;;;2.67;1.70;;;8.10;99.90;;;;;;5071721;28;20184;-67
2023/03/29 00:18:54;;;;;;;2.57;1.40;;;8.10;99.90;;;;;;5092075;28;20177;-68
2023/03/29 00:21:20;;;;;;;2.47;1.40;;;8.10;99.90;;;;;;5061907;28;20207;-67
2023/03/29 00:23:45;;;;;;;1.93;1.50;;;8.10;99.90;;;;;;5071373;28;20173;-68
2023/03/29 00:26:11;;;;;;;2.30;1.67;;;8.10;99.90;;;;;;5070237;28;20188;-65
2023/03/29 00:28:39;;;;;;;2.63;1.60;;;8.10;99.90;;;;;;5057934;28;20215;-67
2023/03/29 00:31:07;;;;;;;2.40;1.60;;;8.10;99.90;;;;;;5100058;28;20177;-67
2023/03/29 00:33:33;;;;;;;2.20;1.53;;;8.10;99.90;;;;;;5070457;28;20257;-67
2023/03/29 00:35:58;;;;;;;3.77;1.80;;;8.10;99.90;;;;;;5096931;28;20256;-67
2023/03/29 00:38:24;;;;;;;3.10;1.53;;;8.10;99.90;;;;;;5071250;28;20173;-67
2023/03/29 00:40:49;;;;;;;2.23;1.57;;;8.10;99.90;;;;;;5067579;28;20177;-66
2023/03/29 00:43:17;;;;;;;1.80;1.47;;;8.10;99.90;;;;;;5072496;28;20503;-67
2023/03/29 00:45:45;;;;;;;3.13;1.73;;;8.10;99.90;;;;;;5074970;28;20168;-67
2023/03/29 00:48:23;;;;;;;3.20;1.50;;;8.10;99.90;;;;;;5065804;28;20181;-66
2023/03/29 00:50:56;;;;;;;3.03;1.70;;;8.10;99.90;;;;;;5060382;28;20196;-67
2023/03/29 00:53:34;;;;;;;2.90;1.73;;;8.10;99.90;;;;;;5092814;28;20209;-66
2023/03/29 00:56:26;;;;;;;2.13;1.77;;;8.10;99.90;;;;;;5067017;28;20173;-67
2023/03/29 00:59:03;;;;;;;2.50;1.60;;;8.10;99.90;;;;;;5065133;28;20288;-67
2023/03/29 01:01:41;;;;;;;3.30;1.67;;;8.10;99.90;;;;;;5069859;28;20168;-67
2023/03/29 01:04:17;;;;;;;2.40;1.43;;;8.10;99.90;;;;;;5061272;28;20203;-67
2023/03/29 01:06:52;;;;;;;2.40;1.60;;;8.10;99.90;;;;;;5065547;28;20196;-67
2023/03/29 01:09:22;;;;;;;2.27;1.80;;;8.10;99.90;;;;;;5055006;28;20177;-67
2023/03/29 01:12:00;;;;;;;2.67;1.60;;;8.10;99.90;;;;;;5092636;28;20205;-67
2023/03/29 01:14:39;;;;;;;2.37;1.60;;;8.10;99.90;;;;;;5055987;28;20198;-67
2023/03/29 01:17:09;;;;;;;1.97;1.40;;;8.10;99.90;;;;;;5068618;28;20176;-67
2023/03/29 01:19:44;;;;;;;1.90;1.50;;;8.10;99.90;;;;;;5068842;28;20181;-67
2023/03/29 01:22:28;;;;;;;2.80;1.50;;;8.10;99.90;;;;;;5090605;28;20195;-67
2023/03/29 01:25:10;;;;;;;2.13;1.40;;;8.10;99.90;;;;;;5080426;28;20181;-67
2023/03/29 01:27:46;;;;;;;2.33;1.60;;;8.10;99.90;;;;;;5055591;28;20180;-68
2023/03/29 01:30:17;;;;;;;3.07;1.60;;;8.10;99.90;;;;;;5064834;28;20184;-67
2023/03/29 01:33:22;;;;;;;2.57;1.60;;;8.10;99.90;;;;;;5074806;28;20208;-67
2023/03/29 01:36:08;;;;;;;2.23;1.47;;;8.10;99.90;;;;;;5074720;28;20220;-67
2023/03/29 01:38:42;;;;;;;1.80;1.50;;;8.10;99.90;;;;;;5074779;28;20176;-68
2023/03/29 01:41:15;;;;;;;1.93;1.37;;;8.10;99.90;;;;;;5074841;28;20233;-69
2023/03/29 01:43:53;;;;;;;2.30;1.30;;;8.10;99.90;;;;;;5074851;28;20232;-67
2023/03/29 01:46:51;;;;;;;2.00;1.57;;;8.10;99.90;;;;;;5074680;28;20176;-65
2023/03/29 01:49:42;;;;;;;2.70;1.60;;;8.20;99.90;;;;;;5074605;28;20247;-67
2023/03/29 01:52:22;;;;;;;2.13;1.50;;;8.20;99.90;;;;;;5063130;28;20279;-67
2023/03/29 01:55:09;;;;;;;3.23;1.70;;;8.20;99.90;;;;;;5074832;28;20234;-66
2023/03/29 01:57:40;;;;;;;1.73;1.33;;;8.20;99.90;;;;;;5074426;28;20172;-67
2023/03/29 02:00:15;;;;;;;2.07;1.60;;;8.20;99.90;;;;;;5064947;28;20278;-69
2023/03/29 02:02:44;;;;;;;2.20;1.60;;;8.20;99.90;;;;;;5092078;28;20180;-67
2023/03/29 02:05:13;;;;;;;2.17;1.40;;;8.20;99.90;;;;;;5058693;28;20246;-69
2023/03/29 02:07:44;;;;;;;2.37;1.60;;;8.30;99.90;;;;;;5058451;28;20205;-67
2023/03/29 02:10:14;;;;;;;2.03;1.40;;;8.20;99.90;;;;;;5058013;28;20195;-69
2023/03/29 02:12:42;;;;;;;1.87;1.40;;;8.30;99.90;;;;;;5057948;28;20205;-62
2023/03/29 02:15:18;;;;;;;1.53;1.37;;;8.30;99.90;;;;;;5058260;28;20177;-67
2023/03/29 02:17:45;;;;;;;2.63;1.67;;;8.40;99.90;;;;;;5059258;28;20177;-69
2023/03/29 02:20:22;;;;;;;2.07;1.43;;;8.40;99.90;;;;;;5063506;28;20181;-65
2023/03/29 02:23:14;;;;;;;2.30;1.50;;;8.40;99.90;;;;;;5101660;28;20230;-68
2023/03/29 02:25:41;;;;;;;2.50;1.40;;;8.40;99.90;;;;;;5065735;28;20177;-68
2023/03/29 02:28:13;;;;;;;2.40;1.37;;;8.40;99.90;;;;;;5069434;28;20216;-68
2023/03/29 02:30:44;;;;;;;3.73;1.77;;;8.40;99.90;;;;;;5068050;28;20209;-68
2023/03/29 02:33:15;;;;;;;1.87;1.40;;;8.40;99.90;;;;;;5061705;28;20204;-68
2023/03/29 02:36:03;;;;;;;1.63;1.40;;;8.40;99.90;;;;;;5099456;28;20201;-68
2023/03/29 02:38:33;;;;;;;1.80;1.30;;;8.50;99.90;;;;;;5065563;28;20177;-69
2023/03/29 02:41:01;;;;;;;4.70;1.77;;;8.50;99.90;;;;;;5062205;28;20200;-68
2023/03/29 02:43:28;;;;;;;2.37;1.60;;;8.50;99.90;;;;;;5073353;28;20209;-69
2023/03/29 02:45:56;;;;;;;1.70;1.50;;;8.50;99.90;;;;;;5067349;28;20259;-68
2023/03/29 02:48:25;;;;;;;2.30;1.60;;;8.50;99.90;;;;;;5063568;28;20310;-68
2023/03/29 02:50:59;;;;;;;2.17;1.47;;;8.50;99.90;;;;;;5077773;28;20201;-69
2023/03/29 02:53:33;;;;;;;2.17;1.47;;;8.50;99.90;;;;;;5073637;28;20271;-68
2023/03/29 02:56:01;;;;;;;3.30;1.50;;;8.50;99.90;;;;;;5077614;28;20179;-69
2023/03/29 02:58:28;;;;;;;1.40;1.30;;;8.50;99.90;;;;;;5076883;28;20350;-70
2023/03/29 03:00:57;;;;;;;1.87;1.27;;;8.50;99.90;;;;;;5071281;28;20239;-68
2023/03/29 03:03:22;;;;;;;1.60;1.20;;;8.60;99.90;;;;;;5056833;28;20181;-69
2023/03/29 03:05:51;;;;;;;1.30;1.00;;;8.60;99.90;;;;;;5065422;28;20215;-69
2023/03/29 03:08:17;;;;;;;2.00;1.40;;;8.60;99.90;;;;;;5066225;28;20185;-69
2023/03/29 03:10:44;;;;;;;1.30;1.20;;;8.60;99.90;;;;;;5096336;28;20200;-68
2023/03/29 03:13:11;;;;;;;1.80;1.40;;;8.60;99.90;;;;;;5064448;28;20234;-69
2023/03/29 03:15:41;;;;;;;1.67;1.23;;;8.70;99.90;;;;;;5090998;28;20199;-69
2023/03/29 03:18:08;;;;;;;1.50;1.10;;;8.70;99.90;;;;;;5057964;28;20242;-69
2023/03/29 03:20:34;;;;;;;1.33;1.23;;;8.70;99.90;;;;;;5057305;28;20256;-69
2023/03/29 03:23:02;;;;;;;2.00;1.17;;;8.70;99.90;;;;;;5070614;28;20181;-69
2023/03/29 03:25:28;;;;;;;2.23;1.40;;;8.70;99.90;;;;;;5056852;28;20219;-69
2023/03/29 03:27:57;;;;;;;1.60;1.40;;;8.70;99.90;;;;;;5057674;28;20185;-69
2023/03/29 03:30:27;;;;;;;1.50;1.30;;;8.80;99.90;;;;;;5090582;28;20243;-69
2023/03/29 03:32:53;;;;;;;2.10;1.40;;;8.80;99.90;;;;;;5090457;28;20220;-69
2023/03/29 03:35:20;;;;;;;1.93;1.30;;;8.80;99.90;;;;;;5090040;28;20173;-68
2023/03/29 03:37:46;;;;;;;1.70;1.30;;;8.80;99.90;;;;;;5104043;28;20201;-69
2023/03/29 03:40:13;;;;;;;1.40;1.30;;;8.90;99.90;;;;;;5089334;28;20183;-69
2023/03/29 03:42:44;;;;;;;1.50;1.30;;;8.80;99.90;;;;;;5096071;28;20215;-68
2023/03/29 03:45:13;;;;;;;1.43;1.20;;;8.80;99.90;;;;;;5076939;28;20210;-69
2023/03/29 03:47:41;;;;;;;1.47;1.10;;;8.80;99.90;;;;;;5076676;28;20176;-69
2023/03/29 03:50:10;;;;;;;2.07;1.33;;;8.80;99.90;;;;;;5076622;28;20184;-69
2023/03/29 03:52:36;;;;;;;1.50;1.13;;;8.90;99.90;;;;;;5076677;28;20262;-65
2023/03/29 03:55:08;;;;;;;1.90;1.43;;;8.90;99.90;;;;;;5071767;28;20213;-68
2023/03/29 03:57:36;;;;;;;1.90;1.40;;;8.90;99.90;;;;;;5056658;28;20189;-68
2023/03/29 04:00:19;;;;;;;1.97;1.20;;;8.90;99.90;;;;;;5056420;28;20497;-68
2023/03/29 04:02:48;;;;;;;1.30;1.20;;;8.90;99.90;;;;;;5059394;28;20212;-69
2023/03/29 04:05:17;;;;;;;2.30;1.40;;;8.90;99.90;;;;;;5072331;28;20177;-69
2023/03/29 04:07:42;;;;;;;2.23;1.63;;;8.90;99.90;;;;;;5085377;28;20215;-69
2023/03/29 04:10:11;;;;;;;2.03;1.30;;;8.90;99.90;;;;;;5075981;28;20416;-68
2023/03/29 04:12:40;;;;;;;1.93;1.63;;;8.90;99.90;;;;;;5075969;28;20215;-68
2023/03/29 04:15:07;;;;;;;1.47;1.27;;;8.90;99.90;;;;;;5093948;28;20176;-68
2023/03/29 04:17:35;;;;;;;2.47;1.53;;;8.90;99.90;;;;;;5083000;28;20173;-68
2023/03/29 04:20:11;;;;;;;2.93;1.30;;;8.90;99.90;;;;;;5094207;28;20177;-68
2023/03/29 04:22:40;;;;;;;1.88;1.30;;;8.90;99.90;;;;;;5057083;28;20196;-68
2023/03/29 04:25:09;;;;;;;1.87;1.30;;;9.00;99.90;;;;;;5061988;28;20203;-68
2023/03/29 04:27:37;;;;;;;2.30;1.40;;;9.00;99.90;;;;;;5064799;28;20249;-68
2023/03/29 04:30:06;;;;;;;2.60;1.50;;;9.00;99.90;;;;;;5099026;28;20200;-67
2023/03/29 04:32:37;;;;;;;2.40;1.40;;;9.00;99.90;;;;;;5060531;28;20207;-68
2023/03/29 04:35:05;;;;;;;2.10;1.50;;;9.00;99.90;;;;;;5072890;28;20200;-64
2023/03/29 04:37:34;;;;;;;1.80;1.40;;;9.00;99.90;;;;;;5066039;28;20181;-68
2023/03/29 04:40:03;;;;;;;2.17;1.70;;;9.00;99.90;;;;;;5055071;28;20170;-68
2023/03/29 04:42:29;;;;;;;2.13;1.50;;;9.00;99.90;;;;;;5054993;28;20531;-66
2023/03/29 04:44:56;;;;;;;2.07;1.50;;;9.00;99.90;;;;;;5088701;28;20213;-69
2023/03/29 04:47:21;;;;;;;1.87;1.27;;;9.10;99.90;;;;;;5064872;28;20229;-65
2023/03/29 04:49:50;;;;;;;1.93;1.40;;;9.00;99.90;;;;;;5095139;28;20172;-68
2023/03/29 04:52:15;;;;;;;1.83;1.63;;;9.00;99.90;;;;;;5080724;28;20242;-66
2023/03/29 04:54:43;;;;;;;2.45;1.60;;;9.00;99.90;;;;;;5074645;28;20200;-68
2023/03/29 04:57:09;;;;;;;1.60;1.30;;;9.10;99.90;;;;;;5074490;28;20176;-68
2023/03/29 04:59:35;;;;;;;2.87;1.53;;;9.10;99.90;;;;;;5074720;28;20224;-68
2023/03/29 05:02:02;;;;;;;2.47;1.50;;;9.10;99.90;;;;;;5074776;28;20194;-69
2023/03/29 05:04:28;;;;;;;3.00;1.60;;;9.10;99.90;;;;;;5074673;28;20325;-67
2023/03/29 05:06:56;;;;;;;2.57;1.53;;;9.10;99.90;;;;;;5074697;28;20177;-68
2023/03/29 05:09:23;;;;;;;1.93;1.50;;;9.10;99.90;;;;;;5080133;28;20274;-68
2023/03/29 05:11:51;;;;;;;3.23;2.40;;;9.10;99.90;;;;;;5067959;28;20231;-69
2023/03/29 05:14:20;;;;;;;4.00;2.10;;;9.10;99.90;;;;;;5074118;28;20176;-67
2023/03/29 05:16:46;;;;;;;1.90;1.60;;;9.20;99.90;;;;;;5067611;28;20169;-68
2023/03/29 05:19:11;;;;;;;2.00;1.40;;;9.20;99.90;;;;;;5087960;28;20177;-68
2023/03/29 05:21:37;;;;;;;2.40;1.57;;;9.20;99.90;;;;;;5096578;28;20180;-69
2023/03/29 05:24:03;;;;;;;2.53;2.03;;;9.20;99.90;;;;;;5095324;28;20208;-77
2023/03/29 05:26:29;;;;;;;2.60;1.93;;;9.20;99.90;;;;;;5056023;28;20185;-76
2023/03/29 05:28:55;;;;;;;3.10;1.90;;;9.20;99.90;;;;;;5086881;28;20246;-79
2023/03/29 05:31:22;;;;;;;2.63;1.70;;;9.20;99.90;;;;;;5094167;28;20272;-78
2023/03/29 05:33:49;;;;;;;2.03;1.53;;;9.20;99.90;;;;;;5073015;28;20261;-79
2023/03/29 05:36:17;;;;;;;2.50;1.53;;;9.30;99.90;;;;;;5069234;28;20287;-78
2023/03/29 05:38:46;;;;;;;2.07;1.63;;;9.20;99.90;;;;;;5061756;28;20229;-79
2023/03/29 05:41:16;;;;;;;1.60;1.40;;;9.30;99.90;;;;;;5074058;28;20192;-79
2023/03/29 05:43:44;;;;;;;2.30;1.70;;;9.30;99.90;;;;;;5063963;28;20188;-78
2023/03/29 05:46:12;;;;;;;2.93;1.70;;;9.30;99.90;;;;;;5070487;28;20187;-78
2023/03/29 05:48:38;;;;;;;2.13;1.53;;;9.30;99.90;;;;;;5070352;28;20195;-79
2023/03/29 05:51:04;;;;;;;2.63;1.67;;;9.30;99.90;;;;;;5070426;28;20485;-79
2023/03/29 05:53:32;;;;;;;1.60;1.37;;;9.30;99.90;;;;;;5053961;28;20244;-80
2023/03/29 05:56:03;;;;;;;2.70;1.90;;;9.30;99.90;;;;;;5070604;28;20173;-75
2023/03/29 05:58:31;;;;;;;2.33;1.90;;;9.30;99.90;;;;;;5070753;28;20161;-79
2023/03/29 06:01:11;;;;;;;2.58;1.88;;;9.30;99.90;;;;;;5070350;28;20197;-78
2023/03/29 06:03:40;;;;;;;2.30;1.70;;;9.40;99.90;;;;;;5071051;28;20242;-79
2023/03/29 06:06:07;;;;;;;3.07;1.60;;;9.40;99.90;;;;;;5070632;28;20197;-79
2023/03/29 06:08:33;;;;;;;2.75;1.77;;;9.40;99.90;;;;;;5070800;28;20174;-78
2023/03/29 06:11:09;;;;;;;1.80;1.47;;;9.40;99.90;;;;;;5070215;28;20193;-77
2023/03/29 06:13:37;;;;;;;2.07;1.63;;;9.50;99.90;;;;;;5070363;28;20208;-75
2023/03/29 06:16:07;;;;;;;2.67;1.50;;;9.40;99.90;;;;;;5074120;28;20173;-79
2023/03/29 06:18:35;;;;;;;3.88;1.60;;;9.50;99.90;;;;;;5073685;28;20197;-78
2023/03/29 06:21:03;;;;;;;2.35;1.40;;;9.60;99.90;;;;;;5073747;28;20249;-78
2023/03/29 06:23:29;;;;;;;3.03;1.63;;;9.50;99.90;;;;;;5074774;28;20222;-75
2023/03/29 06:25:59;;;;;;;2.03;1.27;;;9.50;99.90;;;;;;5073563;28;20201;-78
2023/03/29 06:28:27;;;;;;;3.22;2.38;;;9.60;99.90;;;;;;5073379;28;20202;-74
2023/03/29 06:30:55;;;;;;;3.10;2.03;;;9.70;99.90;;;;;;5073446;28;20176;-75
2023/03/29 06:33:24;;;;;;;2.63;1.65;;;9.60;99.90;;;;;;5073415;28;20260;-78
2023/03/29 06:35:52;;;;;;;2.00;1.50;;;9.60;99.90;;;;;;5073446;28;20181;-78
2023/03/29 06:38:19;;;;;;;3.33;2.03;;;9.70;99.90;;;;;;5073389;28;20338;-78
2023/03/29 06:40:46;;;;;;;1.80;1.38;;;9.70;99.90;;;;;;5070120;28;20173;-78
2023/03/29 06:43:11;;;;;;;2.88;1.73;;;9.70;99.90;;;;;;5070236;28;20173;-78
2023/03/29 06:45:38;;;;;;;1.90;1.40;;;9.80;99.90;;;;;;5070190;28;20177;-78
2023/03/29 06:48:06;;;;;;;3.55;2.15;;;9.80;99.90;;;;;;5074639;28;20199;-78
2023/03/29 06:50:33;;;;;;;2.13;1.50;;;9.90;99.90;;;;;;5077415;28;20192;-78
2023/03/29 06:53:01;;;;;;;2.38;1.80;;;9.90;99.90;;;;;;5077795;28;20192;-77
2023/03/29 06:55:30;;;;;;;2.85;1.77;;;10.00;99.90;;;;;;5077631;28;20176;-78
2023/03/29 06:57:56;;;;;;;4.05;1.85;;;10.00;99.90;;;;;;5077457;28;20169;-77
2023/03/29 07:00:34;;;;;;;2.22;1.83;;;10.10;99.90;;;;;;5077187;28;20175;-78
2023/03/29 07:03:08;;;;;;;5.63;1.90;;;10.10;99.90;;;;;;5077641;28;20207;-78
2023/03/29 07:05:39;;;;;;;2.53;1.80;;;10.20;99.90;;;;;;5077458;28;20239;-78
2023/03/29 07:10:37;;;;;;;2.78;2.00;;;10.30;99.90;;;;;;5057878;28;20212;-78
2023/03/29 07:13:07;;;;;;;1.95;1.63;;;10.40;99.90;;;;;;5090620;28;20244;-77
2023/03/29 07:15:34;;;;;;;2.30;1.50;;;10.40;99.90;;;;;;5090818;28;20197;-78
2023/03/29 07:18:05;;;;;;;3.38;1.73;;;10.50;99.90;;;;;;5100717;28;20255;-78
2023/03/29 07:20:32;;;;;;;2.22;1.50;;;10.50;99.90;;;;;;5076932;28;20210;-79
2023/03/29 07:22:58;;;;;;;2.67;1.55;;;10.50;99.90;;;;;;5076816;28;20206;-77
2023/03/29 07:25:26;;;;;;;3.25;1.73;;;10.60;99.90;;;;;;5076783;28;20199;-73
2023/03/29 07:27:52;;;;;;;2.75;1.65;;;10.60;99.90;;;;;;5076913;28;20239;-77
2023/03/29 07:30:27;;;;;;;2.17;1.30;;;10.60;99.90;;;;;;5058204;28;20181;-78
2023/03/29 07:32:57;;;;;;;2.97;1.40;;;10.70;99.90;;;;;;5056499;28;20197;-75
2023/03/29 07:35:27;;;;;;;2.03;1.60;;;10.60;99.90;;;;;;5056627;28;20189;-78
2023/03/29 07:37:57;;;;;;;3.33;2.40;;;10.70;99.90;;;;;;5057090;28;20187;-75
2023/03/29 07:40:23;;;;;;;3.15;2.00;;;10.70;99.90;;;;;;5067513;28;20204;-78
2023/03/29 07:42:51;;;;;;;2.65;2.00;;;10.80;99.90;;;;;;5073539;28;20174;-78
2023/03/29 07:45:22;;;;;;;3.47;1.70;;;10.80;99.90;;;;;;5073752;28;20178;-77
2023/03/29 07:47:48;;;;;;;2.35;1.63;;;10.90;99.90;;;;;;5073154;28;20201;-79
2023/03/29 07:50:15;;;;;;;2.22;1.85;;;11.00;99.90;;;;;;5057444;28;20181;-78
2023/03/29 07:52:42;;;;;;;1.92;1.60;;;11.00;99.90;;;;;;5073204;28;20218;-78
2023/03/29 07:55:09;;;;;;;2.20;1.50;;;11.10;99.90;;;;;;5073238;28;20205;-80
2023/03/29 07:57:38;;;;;;;1.95;1.70;;;11.20;99.90;;;;;;5073183;28;20197;-79
2023/03/29 08:00:18;;;;;;;3.50;1.75;;;11.20;99.90;;;;;;5072599;28;20197;-76
2023/03/29 08:02:51;;;;;;;2.08;1.67;;;11.30;99.90;;;;;;5073230;28;20173;-78
2023/03/29 08:05:23;;;;;;;1.90;1.55;;;11.40;99.90;;;;;;5072718;28;20266;-75
2023/03/29 08:07:51;;;;;;;2.15;1.60;;;11.50;99.90;;;;;;5056302;28;20188;-79
2023/03/29 08:10:23;;;;;;;2.08;1.50;;;11.60;99.90;;;;;;5055969;28;20185;-79
2023/03/29 08:12:49;;;;;;;2.22;1.65;;;11.60;99.90;;;;;;5056073;28;20202;-77
2023/03/29 08:15:15;;;;;;;2.60;1.70;;;11.70;99.90;;;;;;5071282;28;20182;-79
2023/03/29 08:17:42;;;;;;;2.92;1.67;;;11.80;99.90;;;;;;5073554;28;20203;-79
2023/03/29 08:20:10;;;;;;;3.03;1.70;;;11.80;99.90;;;;;;5073442;28;20188;-79
2023/03/29 08:22:39;;;;;;;3.08;1.73;;;11.90;99.90;;;;;;5072995;28;20180;-78
2023/03/29 08:25:06;;;;;;;2.35;1.70;;;12.00;99.90;;;;;;5062654;28;20209;-80
2023/03/29 08:27:36;;;;;;;3.00;1.65;;;12.10;99.90;;;;;;5056154;28;20177;-78
2023/03/29 08:30:04;;;;;;;4.95;2.78;;;12.20;99.90;;;;;;5055653;28;20443;-79
2023/03/29 08:32:32;;;;;;;5.63;2.55;;;12.20;99.90;;;;;;5059703;28;20251;-76
2023/03/29 08:34:58;;;;;;;4.43;2.45;;;12.30;99.90;;;;;;5072554;28;20201;-79
2023/03/29 08:37:25;;;;;;;3.38;2.13;;;12.40;99.90;;;;;;5075538;28;20231;-79
2023/03/29 08:39:51;;;;;;;2.58;1.67;;;12.40;99.90;;;;;;5075854;28;20169;-79
2023/03/29 08:42:32;;;;;;;2.70;1.77;;;12.50;99.90;;;;;;5076259;28;20207;-77
2023/03/29 08:45:18;;;;;;;2.35;1.60;;;12.50;99.90;;;;;;5079892;28;20197;-78
2023/03/29 08:47:44;;;;;;;2.35;1.50;;;12.60;99.90;;;;;;5087410;28;20161;-79
2023/03/29 08:50:11;;;;;;;1.80;1.30;;;12.70;99.90;;;;;;5080453;28;20257;-80
2023/03/29 08:52:49;;;;;;;1.98;1.38;;;12.90;99.90;;;;;;5076456;28;20192;-78
2023/03/29 08:55:36;;;;;;;2.15;1.30;;;12.90;99.90;;;;;;5076526;28;20172;-79
2023/03/29 08:58:07;;;;;;;2.40;1.35;;;12.90;99.90;;;;;;5075504;28;20222;-79
2023/03/29 09:00:45;;;;;;;2.83;1.40;;;13.00;99.90;;;;;;5075475;28;20198;-78
2023/03/29 09:03:52;;;;;;;2.15;1.63;;;13.10;99.90;;;;;;5075392;28;20173;-79
2023/03/29 09:06:20;;;;;;;2.10;1.50;;;13.20;99.90;;;;;;5041997;28;20188;-79
2023/03/29 09:08:51;;;;;;;3.28;1.83;;;13.20;99.90;;;;;;5075277;28;20244;-77
2023/03/29 09:11:22;;;;;;;2.08;1.45;;;13.30;99.90;;;;;;5074554;28;20211;-78
2023/03/29 09:14:06;;;;;;;1.83;1.52;;;13.30;99.90;;;;;;5074941;28;20243;-79
2023/03/29 09:16:36;;;;;;;2.08;1.70;;;13.30;99.90;;;;;;5075211;28;20172;-79
2023/03/29 09:19:54;;;;;;;3.47;1.85;;;13.40;99.90;;;;;;5075264;28;20173;-78
2023/03/29 09:22:47;;;;;;;3.03;1.50;;;13.40;99.90;;;;;;5027569;28;20559;-76
2023/03/29 09:25:20;;;;;;;4.22;1.75;;;13.40;99.90;;;;;;5054813;28;20169;-78
2023/03/29 09:27:58;;;;;;;2.40;1.60;;;13.40;99.90;;;;;;5066370;28;20208;-78
2023/03/29 09:30:40;;;;;;;2.80;2.10;;;13.50;99.90;;;;;;5087816;28;20230;-77
2023/03/29 09:33:23;;;;;;;2.85;1.95;;;13.50;99.90;;;;;;5071007;28;20225;-78
2023/03/29 09:35:58;;;;;;;2.58;1.70;;;13.50;99.90;;;;;;5071255;28;20207;-79
2023/03/29 09:38:23;;;;;;;3.00;2.00;;;13.50;99.90;;;;;;5088301;28;20173;-78
2023/03/29 09:41:05;;;;;;;2.22;1.73;;;13.50;99.90;;;;;;5074113;28;20288;-78
2023/03/29 09:43:34;;;;;;;2.92;1.90;;;13.60;99.90;;;;;;5074750;28;20173;-78
2023/03/29 09:46:07;;;;;;;3.95;2.08;;;13.60;99.90;;;;;;5075088;28;20202;-79
2023/03/29 09:48:41;;;;;;;3.53;2.20;;;13.70;99.90;;;;;;5074604;28;20176;-76
2023/03/29 09:51:15;;;;;;;3.83;2.00;;;13.70;99.90;;;;;;5069921;28;20179;-79
2023/03/29 09:53:41;;;;;;;3.53;2.10;;;13.70;99.90;;;;;;5074680;28;20200;-79
2023/03/29 09:56:07;;;;;;;3.85;2.10;;;13.80;99.90;;;;;;5075299;28;20177;-78
2023/03/29 09:58:34;;;;;;;4.05;2.10;;;13.90;99.90;;;;;;5074496;28;20211;-76
2023/03/29 10:01:07;;;;;;;3.38;1.98;;;13.90;99.90;;;;;;5074228;28;20168;-79
2023/03/29 10:03:35;;;;;;;3.97;1.85;;;13.90;99.90;;;;;;5074651;28;20197;-79
2023/03/29 10:06:05;;;;;;;3.53;1.90;;;13.90;99.90;;;;;;5074288;28;20258;-77
2023/03/29 10:08:38;;;;;;;5.80;1.90;;;14.00;99.90;;;;;;5074459;28;20177;-77
2023/03/29 10:11:31;;;;;;;2.95;1.90;;;14.10;99.90;;;;;;5073857;28;20208;-77
2023/03/29 10:14:06;;;;;;;7.05;1.90;;;14.10;99.90;;;;;;5051830;28;20233;-79
2023/03/29 10:16:44;;;;;;;2.67;1.77;;;14.10;99.90;;;;;;5054445;28;20183;-79
2023/03/29 10:19:25;;;;;;;2.75;1.95;;;14.20;99.90;;;;;;5054224;28;20177;-78
2023/03/29 10:21:52;;;;;;;2.30;1.80;;;14.20;99.90;;;;;;5056043;28;20173;-78
2023/03/29 10:24:23;;;;;;;3.05;2.08;;;14.20;99.90;;;;;;5058299;28;20201;-80
2023/03/29 10:27:10;;;;;;;2.42;1.83;;;14.20;99.90;;;;;;5070468;28;20223;-78
2023/03/29 10:29:39;;;;;;;3.67;2.33;;;14.20;99.90;;;;;;5077565;28;20184;-76
2023/03/29 10:32:21;;;;;;;3.20;2.03;;;14.10;99.90;;;;;;5077380;28;20189;-79
2023/03/29 10:34:49;;;;;;;4.28;1.70;;;14.10;99.90;;;;;;5077413;28;20168;-76
2023/03/29 10:37:19;;;;;;;4.78;2.13;;;14.10;99.90;;;;;;5077295;28;20165;-72
2023/03/29 10:39:50;;;;;;;2.78;2.00;;;14.20;99.90;;;;;;5077033;28;20187;-78
2023/03/29 10:42:18;;;;;;;2.90;2.10;;;14.20;99.90;;;;;;5077542;28;20402;-77
2023/03/29 10:44:58;;;;;;;4.60;2.17;;;14.30;99.90;;;;;;5077125;28;20160;-79
2023/03/29 10:47:24;;;;;;;3.53;2.20;;;14.30;99.90;;;;;;5077211;28;20168;-77
2023/03/29 10:50:00;;;;;;;2.72;1.88;;;14.50;99.90;;;;;;5058572;28;20185;-79
2023/03/29 10:52:28;;;;;;;2.95;2.00;;;14.60;99.90;;;;;;5057241;28;20189;-78
2023/03/29 10:54:55;;;;;;;3.60;1.80;;;14.70;99.90;;;;;;5056887;28;20196;-78
2023/03/29 10:57:36;;;;;;;4.43;2.13;;;14.80;99.90;;;;;;5057068;28;20166;-78
2023/03/29 11:00:20;;;;;;;2.72;1.98;;;15.00;99.90;;;;;;5056667;28;20268;-78
2023/03/29 11:03:08;;;;;;;3.17;2.10;;;15.10;99.90;;;;;;5056437;28;20201;-77
2023/03/29 11:05:42;;;;;;;4.63;1.83;;;15.20;99.90;;;;;;5064229;28;20185;-75
2023/03/29 11:08:26;;;;;;;3.83;1.70;;;15.30;99.90;;;;;;5076420;28;20199;-79
2023/03/29 11:11:20;;;;;;;3.67;2.00;;;15.40;99.90;;;;;;5076768;28;20200;-78
2023/03/29 11:14:12;;;;;;;2.05;1.58;;;15.50;99.90;;;;;;5074690;28;20224;-78
2023/03/29 11:17:08;;;;;;;3.10;1.70;;;15.60;99.90;;;;;;5076487;28;20255;-78
2023/03/29 11:19:51;;;;;;;4.22;1.63;;;15.70;99.90;;;;;;5076734;28;20172;-75
2023/03/29 11:22:35;;;;;;;2.22;1.50;;;15.80;99.90;;;;;;5076135;28;20176;-81
2023/03/29 11:25:18;;;;;;;2.20;1.45;;;15.80;99.90;;;;;;5076556;28;20169;-75
2023/03/29 11:28:10;;;;;;;1.65;1.40;;;15.90;99.90;;;;;;5057671;28;20208;-80
2023/03/29 11:31:06;;;;;;;2.50;1.45;;;16.00;99.90;;;;;;5050260;28;20185;-77
2023/03/29 11:33:50;;;;;;;1.80;1.25;;;16.10;99.90;;;;;;5055330;28;20209;-78
2023/03/29 11:36:39;;;;;;;3.35;1.17;;;16.20;99.90;;;;;;5055886;28;20189;-77
2023/03/29 11:39:42;;;;;;;1.92;1.42;;;16.20;99.90;;;;;;5083912;28;20215;-77
2023/03/29 11:42:25;;;;;;;3.47;1.50;;;16.20;99.90;;;;;;5056063;28;20196;-77
2023/03/29 11:44:57;;;;;;;3.25;1.33;;;16.20;99.90;;;;;;5089497;28;20161;-78
2023/03/29 11:47:27;;;;;;;3.00;1.33;;;16.20;99.90;;;;;;5089113;28;20223;-79
2023/03/29 11:50:07;;;;;;;2.05;1.40;;;16.20;99.90;;;;;;5089727;28;20192;-77
2023/03/29 11:52:35;;;;;;;2.42;1.30;;;16.20;99.90;;;;;;5089688;28;20201;-77
2023/03/29 11:55:11;;;;;;;2.05;1.10;;;16.30;99.90;;;;;;5103179;28;20171;-73
2023/03/29 11:57:55;;;;;;;3.05;1.27;;;16.30;99.90;;;;;;5105051;28;20181;-64
2023/03/29 12:00:26;;;;;;;2.35;1.23;;;16.30;99.90;;;;;;5092197;28;20229;-67
2023/03/29 12:03:01;;;;;;;1.48;1.10;;;16.40;99.90;;;;;;5098514;28;20165;-67
2023/03/29 12:05:31;;;;;;;2.58;1.40;;;16.50;99.90;;;;;;5098122;28;20218;-62
2023/03/29 12:08:02;;;;;;;2.17;1.00;;;16.50;99.90;;;;;;5097067;28;20156;-78
2023/03/29 12:10:42;;;;;;;2.35;1.20;;;16.60;99.90;;;;;;5095749;28;20202;-65
2023/03/29 12:13:15;;;;;;;2.45;1.23;;;16.70;99.90;;;;;;5076570;28;20212;-78
2023/03/29 12:15:53;;;;;;;2.13;1.20;;;16.70;99.90;;;;;;5075469;28;20183;-79
2023/03/29 12:18:27;;;;;;;2.17;1.00;;;16.80;99.90;;;;;;5059968;28;20177;-77
2023/03/29 12:21:00;;;;;;;1.50;1.00;;;16.80;99.90;;;;;;5089242;28;20230;-78
2023/03/29 12:23:29;;;;;;;3.28;1.20;;;16.90;99.90;;;;;;5055746;28;20284;-80
2023/03/29 12:26:01;;;;;;;2.15;1.00;;;16.90;99.90;;;;;;5089166;28;20327;-74
2023/03/29 12:28:45;;;;;;;2.35;1.50;;;17.00;99.90;;;;;;5091836;28;20193;-77
2023/03/29 12:31:49;;;;;;;1.80;1.40;;;17.10;99.90;;;;;;5065449;28;20177;-78
2023/03/29 12:34:35;;;;;;;2.53;1.70;;;17.20;99.90;;;;;;5037024;28;20193;-78
2023/03/29 12:37:23;;;;;;;4.05;1.42;;;17.30;99.90;;;;;;5055586;28;20193;-80
2023/03/29 12:39:50;;;;;;;1.73;1.17;;;17.40;99.90;;;;;;5073340;28;20177;-79
2023/03/29 12:42:21;;;;;;;2.85;1.10;;;17.50;99.90;;;;;;5074965;28;20234;-79
2023/03/29 12:44:59;;;;;;;2.50;1.10;;;17.60;99.90;;;;;;5074779;28;20183;-77
2023/03/29 12:47:42;;;;;;;1.40;0.80;;;17.70;99.90;;;;;;5074842;28;20187;-80
2023/03/29 12:50:27;;;;;;;2.58;0.95;;;17.80;99.90;;;;;;5075972;28;20183;-79
2023/03/29 12:53:07;;;;;;;1.10;0.85;;;17.90;99.90;;;;;;5083336;28;20191;-77
2023/03/29 12:55:51;;;;;;;1.25;0.80;;;18.00;99.90;;;;;;5095539;28;20215;-79
2023/03/29 12:58:38;;;;;;;2.05;1.00;;;18.10;99.90;;;;;;5095266;28;20168;-81
2023/03/29 13:01:22;;;;;;;2.67;1.00;;;18.20;99.90;;;;;;5095450;28;20192;-79
2023/03/29 13:04:16;;;;;;;1.08;0.90;;;18.30;99.90;;;;;;5093479;28;20179;-80
2023/03/29 13:07:02;;;;;;;1.63;1.00;;;18.30;99.90;;;;;;5075077;28;20233;-80
2023/03/29 13:09:35;;;;;;;1.92;0.75;;;18.40;99.90;;;;;;5075089;28;20208;-79
2023/03/29 13:12:15;;;;;;;1.17;1.00;;;18.30;99.90;;;;;;5075054;28;20219;-79
2023/03/29 13:14:48;;;;;;;1.38;1.27;;;18.40;99.90;;;;;;5075044;28;20203;-79
2023/03/29 13:17:42;;;;;;;1.73;1.08;;;18.50;99.90;;;;;;5058798;28;20265;-80
2023/03/29 13:20:36;;;;;;;1.42;1.00;;;18.70;99.90;;;;;;5075259;28;20541;-74
2023/03/29 13:23:04;;;;;;;1.67;1.00;;;18.90;99.90;;;;;;5074993;28;20255;-80
2023/03/29 13:26:07;;;;;;;3.65;1.10;;;19.00;99.90;;;;;;5074918;28;20207;-80